sensor_id;sensor_type;location;lat;lon;timestamp;P1;durP1;ratioP1;P2;durP2;ratioP2
25381;SDS011;16307;42.896;20.874;2024-02-23T00:01:48;10.65;;;6.57;;
25381;SDS011;16307;42.896;20.874;2024-02-23T00:04:34;13.15;;;6.47;;
25381;SDS011;16307;42.896;20.874;2024-02-23T00:07:20;13.85;;;6.20;;
25381;SDS011;16307;42.896;20.874;2024-02-23T00:10:06;11.90;;;6.43;;
25381;SDS011;16307;42.896;20.874;2024-02-23T00:12:53;13.05;;;7.65;;
25381;SDS011;16307;42.896;20.874;2024-02-23T00:15:39;13.00;;;7.28;;
25381;SDS011;16307;42.896;20.874;2024-02-23T00:18:25;11.70;;;7.13;;
25381;SDS011;16307;42.896;20.874;2024-02-23T00:21:11;13.95;;;8.55;;
25381;SDS011;16307;42.896;20.874;2024-02-23T00:23:57;14.38;;;8.10;;
25381;SDS011;16307;42.896;20.874;2024-02-23T00:26:43;16.38;;;8.45;;
25381;SDS011;16307;42.896;20.874;2024-02-23T00:29:30;11.35;;;7.20;;
25381;SDS011;16307;42.896;20.874;2024-02-23T00:32:16;14.40;;;7.75;;
25381;SDS011;16307;42.896;20.874;2024-02-23T00:35:04;17.73;;;8.32;;
25381;SDS011;16307;42.896;20.874;2024-02-23T00:37:50;16.02;;;7.95;;
25381;SDS011;16307;42.896;20.874;2024-02-23T00:40:36;17.70;;;8.68;;
25381;SDS011;16307;42.896;20.874;2024-02-23T00:43:23;20.05;;;8.18;;
25381;SDS011;16307;42.896;20.874;2024-02-23T00:46:10;18.45;;;8.32;;
25381;SDS011;16307;42.896;20.874;2024-02-23T00:48:57;17.27;;;8.13;;
25381;SDS011;16307;42.896;20.874;2024-02-23T00:51:43;15.27;;;7.97;;
25381;SDS011;16307;42.896;20.874;2024-02-23T00:54:30;13.88;;;8.07;;
25381;SDS011;16307;42.896;20.874;2024-02-23T00:57:15;12.02;;;7.78;;
25381;SDS011;16307;42.896;20.874;2024-02-23T01:00:04;10.20;;;6.47;;
25381;SDS011;16307;42.896;20.874;2024-02-23T01:02:51;14.35;;;6.50;;
25381;SDS011;16307;42.896;20.874;2024-02-23T01:05:37;10.95;;;6.53;;
25381;SDS011;16307;42.896;20.874;2024-02-23T01:08:24;13.10;;;7.55;;
25381;SDS011;16307;42.896;20.874;2024-02-23T01:11:10;17.05;;;8.50;;
25381;SDS011;16307;42.896;20.874;2024-02-23T01:13:56;10.60;;;6.32;;
25381;SDS011;16307;42.896;20.874;2024-02-23T01:16:42;11.48;;;6.60;;
25381;SDS011;16307;42.896;20.874;2024-02-23T01:19:28;9.98;;;5.85;;
25381;SDS011;16307;42.896;20.874;2024-02-23T01:22:15;14.60;;;6.80;;
25381;SDS011;16307;42.896;20.874;2024-02-23T01:25:01;13.45;;;7.78;;
25381;SDS011;16307;42.896;20.874;2024-02-23T01:27:47;12.10;;;7.30;;
25381;SDS011;16307;42.896;20.874;2024-02-23T01:30:33;13.98;;;8.07;;
25381;SDS011;16307;42.896;20.874;2024-02-23T01:33:20;9.60;;;6.13;;
25381;SDS011;16307;42.896;20.874;2024-02-23T01:36:07;15.73;;;7.93;;
25381;SDS011;16307;42.896;20.874;2024-02-23T01:38:53;12.40;;;7.18;;
25381;SDS011;16307;42.896;20.874;2024-02-23T01:41:40;11.90;;;6.75;;
25381;SDS011;16307;42.896;20.874;2024-02-23T01:44:26;12.20;;;7.30;;
25381;SDS011;16307;42.896;20.874;2024-02-23T01:47:12;11.50;;;6.15;;
25381;SDS011;16307;42.896;20.874;2024-02-23T01:49:59;10.98;;;5.95;;
25381;SDS011;16307;42.896;20.874;2024-02-23T01:52:45;9.02;;;5.78;;
25381;SDS011;16307;42.896;20.874;2024-02-23T01:55:31;10.60;;;6.35;;
25381;SDS011;16307;42.896;20.874;2024-02-23T01:58:21;10.93;;;6.65;;
25381;SDS011;16307;42.896;20.874;2024-02-23T02:01:07;10.13;;;5.68;;
25381;SDS011;16307;42.896;20.874;2024-02-23T02:03:54;12.23;;;5.90;;
25381;SDS011;16307;42.896;20.874;2024-02-23T02:06:42;9.27;;;5.63;;
25381;SDS011;16307;42.896;20.874;2024-02-23T02:09:28;12.23;;;6.50;;
25381;SDS011;16307;42.896;20.874;2024-02-23T02:12:14;11.25;;;6.25;;
25381;SDS011;16307;42.896;20.874;2024-02-23T02:15:01;10.43;;;5.78;;
25381;SDS011;16307;42.896;20.874;2024-02-23T02:17:47;10.50;;;5.32;;
25381;SDS011;16307;42.896;20.874;2024-02-23T02:20:34;7.35;;;4.93;;
25381;SDS011;16307;42.896;20.874;2024-02-23T02:23:22;7.93;;;5.43;;
25381;SDS011;16307;42.896;20.874;2024-02-23T02:26:08;8.30;;;5.90;;
25381;SDS011;16307;42.896;20.874;2024-02-23T02:28:55;11.32;;;6.15;;
25381;SDS011;16307;42.896;20.874;2024-02-23T02:31:41;7.57;;;5.20;;
25381;SDS011;16307;42.896;20.874;2024-02-23T02:34:26;12.70;;;5.70;;
25381;SDS011;16307;42.896;20.874;2024-02-23T02:37:14;11.18;;;6.40;;
25381;SDS011;16307;42.896;20.874;2024-02-23T02:40:00;14.35;;;6.40;;
25381;SDS011;16307;42.896;20.874;2024-02-23T02:42:46;15.82;;;5.65;;
25381;SDS011;16307;42.896;20.874;2024-02-23T02:45:32;10.60;;;6.13;;
25381;SDS011;16307;42.896;20.874;2024-02-23T02:48:19;11.18;;;5.75;;
25381;SDS011;16307;42.896;20.874;2024-02-23T02:51:05;10.52;;;5.47;;
25381;SDS011;16307;42.896;20.874;2024-02-23T02:53:51;7.50;;;5.10;;
25381;SDS011;16307;42.896;20.874;2024-02-23T02:56:41;10.48;;;5.70;;
25381;SDS011;16307;42.896;20.874;2024-02-23T02:59:34;13.40;;;6.30;;
25381;SDS011;16307;42.896;20.874;2024-02-23T03:02:22;12.45;;;5.93;;
25381;SDS011;16307;42.896;20.874;2024-02-23T03:05:08;9.80;;;5.90;;
25381;SDS011;16307;42.896;20.874;2024-02-23T03:07:53;10.07;;;5.68;;
25381;SDS011;16307;42.896;20.874;2024-02-23T03:10:40;8.70;;;5.95;;
25381;SDS011;16307;42.896;20.874;2024-02-23T03:13:25;11.88;;;6.10;;
25381;SDS011;16307;42.896;20.874;2024-02-23T03:16:16;10.40;;;5.88;;
25381;SDS011;16307;42.896;20.874;2024-02-23T03:19:03;12.45;;;6.35;;
25381;SDS011;16307;42.896;20.874;2024-02-23T03:21:50;14.73;;;6.47;;
25381;SDS011;16307;42.896;20.874;2024-02-23T03:24:36;8.85;;;5.70;;
25381;SDS011;16307;42.896;20.874;2024-02-23T03:27:27;9.27;;;5.32;;
25381;SDS011;16307;42.896;20.874;2024-02-23T03:30:14;9.32;;;6.10;;
25381;SDS011;16307;42.896;20.874;2024-02-23T03:33:00;12.68;;;7.05;;
25381;SDS011;16307;42.896;20.874;2024-02-23T03:35:46;15.95;;;8.00;;
25381;SDS011;16307;42.896;20.874;2024-02-23T03:38:32;20.02;;;9.98;;
25381;SDS011;16307;42.896;20.874;2024-02-23T03:41:20;19.58;;;8.95;;
25381;SDS011;16307;42.896;20.874;2024-02-23T03:44:06;19.55;;;8.98;;
25381;SDS011;16307;42.896;20.874;2024-02-23T03:46:52;18.75;;;8.63;;
25381;SDS011;16307;42.896;20.874;2024-02-23T03:49:38;15.20;;;8.02;;
25381;SDS011;16307;42.896;20.874;2024-02-23T03:52:24;12.10;;;7.05;;
25381;SDS011;16307;42.896;20.874;2024-02-23T03:55:10;10.90;;;6.45;;
25381;SDS011;16307;42.896;20.874;2024-02-23T03:57:56;11.75;;;6.40;;
25381;SDS011;16307;42.896;20.874;2024-02-23T04:00:43;12.85;;;7.13;;
25381;SDS011;16307;42.896;20.874;2024-02-23T04:03:29;12.82;;;7.55;;
25381;SDS011;16307;42.896;20.874;2024-02-23T04:06:15;14.02;;;7.18;;
25381;SDS011;16307;42.896;20.874;2024-02-23T04:09:01;17.02;;;7.30;;
25381;SDS011;16307;42.896;20.874;2024-02-23T04:11:51;13.70;;;6.80;;
25381;SDS011;16307;42.896;20.874;2024-02-23T04:14:37;13.40;;;7.53;;
25381;SDS011;16307;42.896;20.874;2024-02-23T04:17:23;17.67;;;8.63;;
25381;SDS011;16307;42.896;20.874;2024-02-23T04:20:10;18.45;;;8.60;;
25381;SDS011;16307;42.896;20.874;2024-02-23T04:22:56;19.42;;;8.50;;
25381;SDS011;16307;42.896;20.874;2024-02-23T04:25:42;16.50;;;7.72;;
25381;SDS011;16307;42.896;20.874;2024-02-23T04:28:28;13.52;;;7.80;;
25381;SDS011;16307;42.896;20.874;2024-02-23T04:31:17;13.75;;;7.57;;
25381;SDS011;16307;42.896;20.874;2024-02-23T04:34:03;16.48;;;7.93;;
25381;SDS011;16307;42.896;20.874;2024-02-23T04:36:49;14.20;;;8.13;;
25381;SDS011;16307;42.896;20.874;2024-02-23T04:39:35;12.35;;;7.72;;
25381;SDS011;16307;42.896;20.874;2024-02-23T04:42:21;14.30;;;8.20;;
25381;SDS011;16307;42.896;20.874;2024-02-23T04:45:07;15.63;;;7.85;;
25381;SDS011;16307;42.896;20.874;2024-02-23T04:47:53;12.95;;;6.85;;
25381;SDS011;16307;42.896;20.874;2024-02-23T04:50:39;12.32;;;7.07;;
25381;SDS011;16307;42.896;20.874;2024-02-23T04:53:25;15.20;;;7.55;;
25381;SDS011;16307;42.896;20.874;2024-02-23T04:56:12;18.63;;;9.10;;
25381;SDS011;16307;42.896;20.874;2024-02-23T04:58:58;19.95;;;9.57;;
25381;SDS011;16307;42.896;20.874;2024-02-23T05:01:44;18.70;;;9.02;;
25381;SDS011;16307;42.896;20.874;2024-02-23T05:04:30;18.08;;;9.25;;
25381;SDS011;16307;42.896;20.874;2024-02-23T05:07:16;17.60;;;8.85;;
25381;SDS011;16307;42.896;20.874;2024-02-23T05:10:02;19.83;;;9.20;;
25381;SDS011;16307;42.896;20.874;2024-02-23T05:12:49;25.13;;;11.68;;
25381;SDS011;16307;42.896;20.874;2024-02-23T05:15:36;19.17;;;9.90;;
25381;SDS011;16307;42.896;20.874;2024-02-23T05:18:22;23.10;;;10.73;;
25381;SDS011;16307;42.896;20.874;2024-02-23T05:21:08;13.55;;;7.18;;
25381;SDS011;16307;42.896;20.874;2024-02-23T05:23:55;13.93;;;7.57;;
25381;SDS011;16307;42.896;20.874;2024-02-23T05:26:41;13.80;;;7.50;;
25381;SDS011;16307;42.896;20.874;2024-02-23T05:29:29;15.48;;;7.70;;
25381;SDS011;16307;42.896;20.874;2024-02-23T05:32:16;17.80;;;10.13;;
25381;SDS011;16307;42.896;20.874;2024-02-23T05:35:03;31.75;;;14.05;;
25381;SDS011;16307;42.896;20.874;2024-02-23T05:37:49;33.38;;;16.92;;
25381;SDS011;16307;42.896;20.874;2024-02-23T05:40:35;35.83;;;17.27;;
25381;SDS011;16307;42.896;20.874;2024-02-23T05:43:22;33.13;;;16.42;;
25381;SDS011;16307;42.896;20.874;2024-02-23T05:46:08;28.00;;;13.25;;
25381;SDS011;16307;42.896;20.874;2024-02-23T05:48:54;25.35;;;11.75;;
25381;SDS011;16307;42.896;20.874;2024-02-23T05:51:40;25.38;;;12.35;;
25381;SDS011;16307;42.896;20.874;2024-02-23T05:54:26;20.75;;;10.75;;
25381;SDS011;16307;42.896;20.874;2024-02-23T05:57:12;20.25;;;10.65;;
25381;SDS011;16307;42.896;20.874;2024-02-23T05:59:58;20.65;;;10.68;;
25381;SDS011;16307;42.896;20.874;2024-02-23T06:02:44;22.70;;;10.30;;
25381;SDS011;16307;42.896;20.874;2024-02-23T06:05:31;25.30;;;13.73;;
25381;SDS011;16307;42.896;20.874;2024-02-23T06:08:18;30.40;;;15.77;;
25381;SDS011;16307;42.896;20.874;2024-02-23T06:11:03;31.00;;;17.15;;
25381;SDS011;16307;42.896;20.874;2024-02-23T06:13:50;24.90;;;15.10;;
25381;SDS011;16307;42.896;20.874;2024-02-23T06:16:36;24.58;;;13.20;;
25381;SDS011;16307;42.896;20.874;2024-02-23T06:19:23;27.42;;;15.02;;
25381;SDS011;16307;42.896;20.874;2024-02-23T06:22:09;24.90;;;12.15;;
25381;SDS011;16307;42.896;20.874;2024-02-23T06:24:56;19.35;;;10.25;;
25381;SDS011;16307;42.896;20.874;2024-02-23T06:27:42;20.73;;;10.05;;
25381;SDS011;16307;42.896;20.874;2024-02-23T06:30:28;17.45;;;10.27;;
25381;SDS011;16307;42.896;20.874;2024-02-23T06:33:14;18.65;;;9.95;;
25381;SDS011;16307;42.896;20.874;2024-02-23T06:36:01;20.58;;;9.82;;
25381;SDS011;16307;42.896;20.874;2024-02-23T06:38:48;21.38;;;9.73;;
25381;SDS011;16307;42.896;20.874;2024-02-23T06:41:34;17.45;;;8.88;;
25381;SDS011;16307;42.896;20.874;2024-02-23T06:44:20;20.00;;;8.05;;
25381;SDS011;16307;42.896;20.874;2024-02-23T06:47:06;19.75;;;8.10;;
25381;SDS011;16307;42.896;20.874;2024-02-23T06:49:52;17.08;;;8.00;;
25381;SDS011;16307;42.896;20.874;2024-02-23T06:52:38;21.73;;;7.90;;
25381;SDS011;16307;42.896;20.874;2024-02-23T06:55:24;16.98;;;7.60;;
25381;SDS011;16307;42.896;20.874;2024-02-23T06:58:11;18.85;;;7.70;;
25381;SDS011;16307;42.896;20.874;2024-02-23T07:00:59;16.30;;;7.18;;
25381;SDS011;16307;42.896;20.874;2024-02-23T07:03:46;21.77;;;8.35;;
25381;SDS011;16307;42.896;20.874;2024-02-23T07:06:34;14.15;;;7.15;;
25381;SDS011;16307;42.896;20.874;2024-02-23T07:09:22;10.68;;;6.72;;
25381;SDS011;16307;42.896;20.874;2024-02-23T07:12:08;14.02;;;6.68;;
25381;SDS011;16307;42.896;20.874;2024-02-23T07:14:57;12.65;;;6.22;;
25381;SDS011;16307;42.896;20.874;2024-02-23T07:17:44;13.95;;;6.40;;
25381;SDS011;16307;42.896;20.874;2024-02-23T07:20:30;7.95;;;4.00;;
25381;SDS011;16307;42.896;20.874;2024-02-23T07:23:17;13.55;;;6.50;;
25381;SDS011;16307;42.896;20.874;2024-02-23T07:26:03;20.60;;;9.13;;
25381;SDS011;16307;42.896;20.874;2024-02-23T07:28:49;26.52;;;10.57;;
25381;SDS011;16307;42.896;20.874;2024-02-23T07:31:35;14.20;;;6.40;;
25381;SDS011;16307;42.896;20.874;2024-02-23T07:34:21;12.20;;;5.93;;
25381;SDS011;16307;42.896;20.874;2024-02-23T07:37:08;12.75;;;6.28;;
25381;SDS011;16307;42.896;20.874;2024-02-23T07:39:55;10.57;;;4.75;;
25381;SDS011;16307;42.896;20.874;2024-02-23T07:42:41;15.45;;;4.65;;
25381;SDS011;16307;42.896;20.874;2024-02-23T07:45:27;10.75;;;4.78;;
25381;SDS011;16307;42.896;20.874;2024-02-23T07:48:13;11.45;;;5.43;;
25381;SDS011;16307;42.896;20.874;2024-02-23T07:50:59;9.98;;;5.40;;
25381;SDS011;16307;42.896;20.874;2024-02-23T07:53:46;14.18;;;5.60;;
25381;SDS011;16307;42.896;20.874;2024-02-23T07:56:32;20.52;;;5.70;;
25381;SDS011;16307;42.896;20.874;2024-02-23T07:59:18;10.02;;;5.15;;
25381;SDS011;16307;42.896;20.874;2024-02-23T08:02:05;12.00;;;4.85;;
25381;SDS011;16307;42.896;20.874;2024-02-23T08:04:51;11.05;;;4.97;;
25381;SDS011;16307;42.896;20.874;2024-02-23T08:07:38;9.13;;;4.60;;
25381;SDS011;16307;42.896;20.874;2024-02-23T08:10:24;9.38;;;4.97;;
25381;SDS011;16307;42.896;20.874;2024-02-23T08:13:11;11.73;;;5.30;;
25381;SDS011;16307;42.896;20.874;2024-02-23T08:15:57;12.85;;;5.88;;
25381;SDS011;16307;42.896;20.874;2024-02-23T08:18:44;22.23;;;10.35;;
25381;SDS011;16307;42.896;20.874;2024-02-23T08:21:30;14.50;;;6.63;;
25381;SDS011;16307;42.896;20.874;2024-02-23T08:24:16;13.35;;;6.45;;
25381;SDS011;16307;42.896;20.874;2024-02-23T08:27:03;14.68;;;5.68;;
25381;SDS011;16307;42.896;20.874;2024-02-23T08:29:49;10.88;;;5.13;;
25381;SDS011;16307;42.896;20.874;2024-02-23T08:32:35;13.55;;;6.03;;
25381;SDS011;16307;42.896;20.874;2024-02-23T08:35:22;22.13;;;5.97;;
25381;SDS011;16307;42.896;20.874;2024-02-23T08:38:08;11.50;;;5.80;;
25381;SDS011;16307;42.896;20.874;2024-02-23T08:40:54;11.93;;;5.25;;
25381;SDS011;16307;42.896;20.874;2024-02-23T08:43:40;13.85;;;6.40;;
25381;SDS011;16307;42.896;20.874;2024-02-23T08:46:26;14.20;;;6.70;;
25381;SDS011;16307;42.896;20.874;2024-02-23T08:49:12;9.48;;;5.22;;
25381;SDS011;16307;42.896;20.874;2024-02-23T08:51:58;13.77;;;6.15;;
25381;SDS011;16307;42.896;20.874;2024-02-23T08:54:44;15.65;;;6.43;;
25381;SDS011;16307;42.896;20.874;2024-02-23T08:57:30;17.67;;;6.03;;
25381;SDS011;16307;42.896;20.874;2024-02-23T09:00:17;9.38;;;5.55;;
25381;SDS011;16307;42.896;20.874;2024-02-23T09:03:03;14.85;;;7.07;;
25381;SDS011;16307;42.896;20.874;2024-02-23T09:05:50;19.13;;;8.57;;
25381;SDS011;16307;42.896;20.874;2024-02-23T09:08:36;13.00;;;6.13;;
25381;SDS011;16307;42.896;20.874;2024-02-23T09:11:22;17.13;;;6.18;;
25381;SDS011;16307;42.896;20.874;2024-02-23T09:14:08;42.55;;;6.38;;
25381;SDS011;16307;42.896;20.874;2024-02-23T09:16:54;12.55;;;5.28;;
25381;SDS011;16307;42.896;20.874;2024-02-23T09:19:41;12.13;;;5.90;;
25381;SDS011;16307;42.896;20.874;2024-02-23T09:22:27;10.52;;;5.10;;
25381;SDS011;16307;42.896;20.874;2024-02-23T09:25:13;13.55;;;5.55;;
25381;SDS011;16307;42.896;20.874;2024-02-23T09:27:59;18.90;;;5.88;;
25381;SDS011;16307;42.896;20.874;2024-02-23T09:30:45;11.55;;;5.00;;
25381;SDS011;16307;42.896;20.874;2024-02-23T09:33:31;10.60;;;5.80;;
25381;SDS011;16307;42.896;20.874;2024-02-23T09:36:17;12.10;;;5.60;;
25381;SDS011;16307;42.896;20.874;2024-02-23T09:39:03;15.77;;;6.55;;
25381;SDS011;16307;42.896;20.874;2024-02-23T09:41:50;12.93;;;6.68;;
25381;SDS011;16307;42.896;20.874;2024-02-23T09:44:36;18.17;;;7.30;;
25381;SDS011;16307;42.896;20.874;2024-02-23T09:47:23;13.07;;;5.78;;
25381;SDS011;16307;42.896;20.874;2024-02-23T09:50:10;11.65;;;5.85;;
25381;SDS011;16307;42.896;20.874;2024-02-23T09:52:58;13.02;;;5.32;;
25381;SDS011;16307;42.896;20.874;2024-02-23T09:55:45;10.63;;;4.90;;
25381;SDS011;16307;42.896;20.874;2024-02-23T09:58:35;9.10;;;5.20;;
25381;SDS011;16307;42.896;20.874;2024-02-23T10:01:25;7.60;;;4.72;;
25381;SDS011;16307;42.896;20.874;2024-02-23T10:04:13;15.43;;;5.50;;
25381;SDS011;16307;42.896;20.874;2024-02-23T10:07:00;13.10;;;5.25;;
25381;SDS011;16307;42.896;20.874;2024-02-23T10:09:46;11.70;;;5.80;;
25381;SDS011;16307;42.896;20.874;2024-02-23T10:12:33;10.35;;;5.43;;
25381;SDS011;16307;42.896;20.874;2024-02-23T10:15:19;9.25;;;5.25;;
25381;SDS011;16307;42.896;20.874;2024-02-23T10:18:05;10.13;;;4.60;;
25381;SDS011;16307;42.896;20.874;2024-02-23T10:20:52;12.50;;;5.18;;
25381;SDS011;16307;42.896;20.874;2024-02-23T10:23:39;8.07;;;4.97;;
25381;SDS011;16307;42.896;20.874;2024-02-23T10:26:26;17.85;;;6.45;;
25381;SDS011;16307;42.896;20.874;2024-02-23T10:29:14;10.77;;;5.82;;
25381;SDS011;16307;42.896;20.874;2024-02-23T10:32:03;13.20;;;5.45;;
25381;SDS011;16307;42.896;20.874;2024-02-23T10:34:51;12.38;;;5.20;;
25381;SDS011;16307;42.896;20.874;2024-02-23T10:37:40;9.48;;;5.50;;
25381;SDS011;16307;42.896;20.874;2024-02-23T10:40:28;21.42;;;5.85;;
25381;SDS011;16307;42.896;20.874;2024-02-23T10:43:17;16.70;;;6.63;;
25381;SDS011;16307;42.896;20.874;2024-02-23T10:46:07;12.98;;;4.88;;
25381;SDS011;16307;42.896;20.874;2024-02-23T10:48:59;12.95;;;4.53;;
25381;SDS011;16307;42.896;20.874;2024-02-23T10:51:47;16.10;;;4.40;;
25381;SDS011;16307;42.896;20.874;2024-02-23T10:54:35;16.05;;;4.80;;
25381;SDS011;16307;42.896;20.874;2024-02-23T10:57:21;11.90;;;4.55;;
25381;SDS011;16307;42.896;20.874;2024-02-23T11:00:08;14.80;;;6.55;;
25381;SDS011;16307;42.896;20.874;2024-02-23T11:02:57;29.33;;;9.73;;
25381;SDS011;16307;42.896;20.874;2024-02-23T11:05:47;18.52;;;6.93;;
25381;SDS011;16307;42.896;20.874;2024-02-23T11:08:35;13.38;;;5.57;;
25381;SDS011;16307;42.896;20.874;2024-02-23T11:11:24;9.82;;;5.03;;
25381;SDS011;16307;42.896;20.874;2024-02-23T11:14:10;11.65;;;6.18;;
25381;SDS011;16307;42.896;20.874;2024-02-23T11:16:56;11.23;;;6.50;;
25381;SDS011;16307;42.896;20.874;2024-02-23T11:19:42;18.17;;;6.43;;
25381;SDS011;16307;42.896;20.874;2024-02-23T11:22:33;10.32;;;6.35;;
25381;SDS011;16307;42.896;20.874;2024-02-23T11:25:26;16.42;;;5.70;;
25381;SDS011;16307;42.896;20.874;2024-02-23T11:28:23;20.70;;;6.70;;
25381;SDS011;16307;42.896;20.874;2024-02-23T11:31:13;12.15;;;5.78;;
25381;SDS011;16307;42.896;20.874;2024-02-23T11:34:00;12.40;;;5.70;;
25381;SDS011;16307;42.896;20.874;2024-02-23T11:36:46;13.15;;;5.45;;
25381;SDS011;16307;42.896;20.874;2024-02-23T11:39:37;10.00;;;4.65;;
25381;SDS011;16307;42.896;20.874;2024-02-23T11:42:25;8.93;;;4.80;;
25381;SDS011;16307;42.896;20.874;2024-02-23T11:45:13;12.00;;;4.63;;
25381;SDS011;16307;42.896;20.874;2024-02-23T11:47:59;9.70;;;5.20;;
25381;SDS011;16307;42.896;20.874;2024-02-23T11:50:47;13.77;;;5.28;;
25381;SDS011;16307;42.896;20.874;2024-02-23T11:53:35;14.48;;;6.47;;
25381;SDS011;16307;42.896;20.874;2024-02-23T11:56:23;17.15;;;4.97;;
25381;SDS011;16307;42.896;20.874;2024-02-23T11:59:10;9.80;;;3.85;;
25381;SDS011;16307;42.896;20.874;2024-02-23T12:01:56;14.25;;;3.80;;
25381;SDS011;16307;42.896;20.874;2024-02-23T12:04:43;12.98;;;3.83;;
25381;SDS011;16307;42.896;20.874;2024-02-23T12:07:29;14.15;;;3.95;;
25381;SDS011;16307;42.896;20.874;2024-02-23T12:10:16;22.67;;;6.30;;
25381;SDS011;16307;42.896;20.874;2024-02-23T12:13:02;16.45;;;5.38;;
25381;SDS011;16307;42.896;20.874;2024-02-23T12:15:51;10.85;;;4.63;;
25381;SDS011;16307;42.896;20.874;2024-02-23T12:18:39;13.13;;;4.20;;
25381;SDS011;16307;42.896;20.874;2024-02-23T12:21:25;10.02;;;4.57;;
25381;SDS011;16307;42.896;20.874;2024-02-23T12:24:11;11.10;;;4.30;;
25381;SDS011;16307;42.896;20.874;2024-02-23T12:26:57;13.20;;;4.88;;
25381;SDS011;16307;42.896;20.874;2024-02-23T12:29:53;18.23;;;4.45;;
25381;SDS011;16307;42.896;20.874;2024-02-23T12:32:39;13.15;;;3.38;;
25381;SDS011;16307;42.896;20.874;2024-02-23T12:35:26;9.52;;;4.18;;
25381;SDS011;16307;42.896;20.874;2024-02-23T12:38:13;4.70;;;2.80;;
25381;SDS011;16307;42.896;20.874;2024-02-23T12:40:59;14.82;;;3.42;;
25381;SDS011;16307;42.896;20.874;2024-02-23T12:43:46;7.45;;;3.75;;
25381;SDS011;16307;42.896;20.874;2024-02-23T12:46:33;10.35;;;3.42;;
25381;SDS011;16307;42.896;20.874;2024-02-23T12:49:19;18.48;;;4.13;;
25381;SDS011;16307;42.896;20.874;2024-02-23T12:52:06;18.08;;;4.35;;
25381;SDS011;16307;42.896;20.874;2024-02-23T12:54:52;8.70;;;3.50;;
25381;SDS011;16307;42.896;20.874;2024-02-23T12:57:38;9.75;;;3.90;;
25381;SDS011;16307;42.896;20.874;2024-02-23T13:00:24;7.22;;;3.70;;
25381;SDS011;16307;42.896;20.874;2024-02-23T13:03:10;7.82;;;3.70;;
25381;SDS011;16307;42.896;20.874;2024-02-23T13:05:56;8.32;;;3.25;;
25381;SDS011;16307;42.896;20.874;2024-02-23T13:08:43;13.40;;;3.55;;
25381;SDS011;16307;42.896;20.874;2024-02-23T13:11:29;12.25;;;3.80;;
25381;SDS011;16307;42.896;20.874;2024-02-23T13:14:16;17.20;;;4.38;;
25381;SDS011;16307;42.896;20.874;2024-02-23T13:17:02;13.38;;;3.72;;
25381;SDS011;16307;42.896;20.874;2024-02-23T13:19:49;11.07;;;5.00;;
25381;SDS011;16307;42.896;20.874;2024-02-23T13:22:50;13.45;;;3.80;;
25381;SDS011;16307;42.896;20.874;2024-02-23T13:25:36;9.18;;;3.90;;
25381;SDS011;16307;42.896;20.874;2024-02-23T13:28:22;9.88;;;4.05;;
25381;SDS011;16307;42.896;20.874;2024-02-23T13:31:08;7.75;;;3.22;;
25381;SDS011;16307;42.896;20.874;2024-02-23T13:33:54;16.63;;;4.30;;
25381;SDS011;16307;42.896;20.874;2024-02-23T13:36:41;9.38;;;5.10;;
25381;SDS011;16307;42.896;20.874;2024-02-23T13:39:27;6.18;;;3.33;;
25381;SDS011;16307;42.896;20.874;2024-02-23T13:42:13;5.93;;;3.17;;
25381;SDS011;16307;42.896;20.874;2024-02-23T13:44:59;11.77;;;4.93;;
25381;SDS011;16307;42.896;20.874;2024-02-23T13:47:59;15.45;;;5.20;;
25381;SDS011;16307;42.896;20.874;2024-02-23T13:50:48;10.45;;;5.18;;
25381;SDS011;16307;42.896;20.874;2024-02-23T13:53:34;10.32;;;5.45;;
25381;SDS011;16307;42.896;20.874;2024-02-23T13:56:23;11.75;;;4.85;;
25381;SDS011;16307;42.896;20.874;2024-02-23T13:59:11;11.95;;;5.47;;
25381;SDS011;16307;42.896;20.874;2024-02-23T14:01:57;15.38;;;5.90;;
25381;SDS011;16307;42.896;20.874;2024-02-23T14:04:43;9.95;;;5.65;;
25381;SDS011;16307;42.896;20.874;2024-02-23T14:07:31;12.65;;;6.32;;
25381;SDS011;16307;42.896;20.874;2024-02-23T14:10:17;15.95;;;6.50;;
25381;SDS011;16307;42.896;20.874;2024-02-23T14:13:03;14.68;;;5.22;;
25381;SDS011;16307;42.896;20.874;2024-02-23T14:15:49;12.85;;;6.07;;
25381;SDS011;16307;42.896;20.874;2024-02-23T14:18:35;12.05;;;5.43;;
25381;SDS011;16307;42.896;20.874;2024-02-23T14:21:23;12.95;;;5.45;;
25381;SDS011;16307;42.896;20.874;2024-02-23T14:24:11;12.68;;;5.78;;
25381;SDS011;16307;42.896;20.874;2024-02-23T14:26:57;10.63;;;4.15;;
25381;SDS011;16307;42.896;20.874;2024-02-23T14:29:43;12.15;;;4.28;;
25381;SDS011;16307;42.896;20.874;2024-02-23T14:32:29;11.70;;;4.60;;
25381;SDS011;16307;42.896;20.874;2024-02-23T14:35:17;8.98;;;4.25;;
25381;SDS011;16307;42.896;20.874;2024-02-23T14:38:03;9.52;;;4.30;;
25381;SDS011;16307;42.896;20.874;2024-02-23T14:40:49;11.80;;;5.00;;
25381;SDS011;16307;42.896;20.874;2024-02-23T14:43:36;9.82;;;5.05;;
25381;SDS011;16307;42.896;20.874;2024-02-23T14:46:22;13.95;;;4.72;;
25381;SDS011;16307;42.896;20.874;2024-02-23T14:49:08;14.35;;;6.00;;
25381;SDS011;16307;42.896;20.874;2024-02-23T14:51:56;13.88;;;5.50;;
25381;SDS011;16307;42.896;20.874;2024-02-23T14:54:41;16.15;;;6.18;;
25381;SDS011;16307;42.896;20.874;2024-02-23T14:57:28;13.75;;;5.55;;
25381;SDS011;16307;42.896;20.874;2024-02-23T15:00:14;12.23;;;5.40;;
25381;SDS011;16307;42.896;20.874;2024-02-23T15:03:00;11.40;;;5.22;;
25381;SDS011;16307;42.896;20.874;2024-02-23T15:05:46;17.42;;;6.72;;
25381;SDS011;16307;42.896;20.874;2024-02-23T15:08:33;14.00;;;6.35;;
25381;SDS011;16307;42.896;20.874;2024-02-23T15:11:19;14.20;;;5.90;;
25381;SDS011;16307;42.896;20.874;2024-02-23T15:14:05;15.77;;;6.80;;
25381;SDS011;16307;42.896;20.874;2024-02-23T15:16:52;15.35;;;6.50;;
25381;SDS011;16307;42.896;20.874;2024-02-23T15:19:38;15.38;;;6.25;;
25381;SDS011;16307;42.896;20.874;2024-02-23T15:22:25;14.88;;;6.40;;
25381;SDS011;16307;42.896;20.874;2024-02-23T15:25:11;11.02;;;4.97;;
25381;SDS011;16307;42.896;20.874;2024-02-23T15:27:57;11.05;;;5.35;;
25381;SDS011;16307;42.896;20.874;2024-02-23T15:30:44;11.88;;;5.97;;
25381;SDS011;16307;42.896;20.874;2024-02-23T15:33:30;18.77;;;7.10;;
25381;SDS011;16307;42.896;20.874;2024-02-23T15:36:17;12.10;;;4.80;;
25381;SDS011;16307;42.896;20.874;2024-02-23T15:39:04;11.63;;;5.80;;
25381;SDS011;16307;42.896;20.874;2024-02-23T15:41:52;16.17;;;6.10;;
25381;SDS011;16307;42.896;20.874;2024-02-23T15:44:38;18.77;;;6.32;;
25381;SDS011;16307;42.896;20.874;2024-02-23T15:47:25;8.98;;;5.00;;
25381;SDS011;16307;42.896;20.874;2024-02-23T15:50:11;15.48;;;5.70;;
25381;SDS011;16307;42.896;20.874;2024-02-23T15:53:17;12.05;;;5.70;;
25381;SDS011;16307;42.896;20.874;2024-02-23T15:56:03;13.75;;;5.57;;
25381;SDS011;16307;42.896;20.874;2024-02-23T15:58:50;13.75;;;5.57;;
25381;SDS011;16307;42.896;20.874;2024-02-23T16:01:36;11.48;;;5.72;;
25381;SDS011;16307;42.896;20.874;2024-02-23T16:04:23;9.23;;;4.22;;
25381;SDS011;16307;42.896;20.874;2024-02-23T16:07:09;15.50;;;6.20;;
25381;SDS011;16307;42.896;20.874;2024-02-23T16:09:56;14.05;;;6.65;;
25381;SDS011;16307;42.896;20.874;2024-02-23T16:12:43;15.13;;;6.32;;
25381;SDS011;16307;42.896;20.874;2024-02-23T16:15:35;17.17;;;5.63;;
25381;SDS011;16307;42.896;20.874;2024-02-23T16:18:21;13.23;;;6.30;;